Tiempo atmosférico en la estación meteorológica de Cortes De La Frontera, Málaga (315 m.)



Fecha
DESCASC
Temp. máxima en grados centígrados (hora)
DESCASC
Temp. mínima en grados centígrados (hora)
DESCASC
Temp. media en grados centígrados
DESCASC
Racha de viento máxima en m/sg (hora)
DESCASC
Velocidad máxima media en intervalos de 10 minutos(hora)
DESCASC
Precipitaciones diarias en mm
DESCASC
Precipitaciones de 00:00 a 06:00 en mm
DESCASC
Precipitaciones de 06:00 a 12:00 en mm
DESCASC
Precipitaciones de 12:00 a 18:00 en mm
DESCASC
Precipitaciones de 18:00 a 24:00 en mm
DESCASC
02-07-2020 34.3 (16:40) 18.5 (04:40) 26.4 7.5 (13:00) 2.5 (12:10) 0 0 0 0 0
01-07-2020 36.4 (16:20) 15.9 (06:00) 26.2 5.28 (13:40) 2.22 (13:40) 0 0 0 0 0
30-06-2020 32 (15:20) 16.5 (00:00) 24.3 5.83 (14:30) 2.22 (14:30) 0 0 0 0 0
29-06-2020 32.5 (15:50) 16.5 (00:00) 24.5 6.39 (14:10) 2.22 (12:40) 0 0 0 0 0
28-06-2020 34.6 (16:20) 17.1 (00:00) 25.8 5.28 (15:50) 2.22 (15:40) 0 0 0 0 0
27-06-2020 32.5 (15:40) 15.8 (00:00) 24.2 7.5 (20:40) 2.22 (21:00) 0 0 0 0 0
26-06-2020 29.8 (16:50) 15.4 (00:00) 22.6 6.67 (13:10) 2.22 (13:10) 0 0 0 0 0
25-06-2020 30.6 (15:40) 15.1 (00:00) 22.9 6.67 (15:30) 2.22 (15:20) 0 0 0 0 0
24-06-2020 30.7 (13:30) 16.3 (00:00) 23.5 5 (17:00) 1.94 (14:40) 0 0 0 0 0
23-06-2020 31.8 (16:10) 16.8 (00:00) 24.3 5.56 (17:20) 1.94 (16:50) 0 0 0 0 0
22-06-2020 34.3 (15:50) 15.7 (00:00) 25 6.39 (14:50) 2.22 (15:20) 0 0 0 0 0
21-06-2020 35.7 (16:20) 15.5 (00:00) 25.6 5 (16:00) 1.94 (17:40) 0 0 0 0 0
20-06-2020 30.5 (15:00) 14.1 (00:00) 22.3 5.83 (14:00) 2.22 (15:30) 0 0 0 0 0
19-06-2020 29.2 (16:10) 12.3 (00:00) 20.8 6.11 (15:40) 1.94 (15:40) 0 0 0 0 0
18-06-2020 29.8 (15:50) 15 (00:00) 22.4 5.83 (13:30) 1.94 (13:30) 0 0 0 0 0
17-06-2020 28.6 (15:50) 15.9 (00:00) 22.3 7.22 (16:30) 2.22 (12:10) 0 0 0 0 0
16-06-2020 27 (15:20) 16.5 (00:00) 21.8 8.61 (14:10) 2.22 (06:30) 0 0 0 0 0
15-06-2020 28.1 (16:00) 12.5 (00:00) 20.3 10 (21:40) 2.78 (22:20) 0 0 0 0 0
14-06-2020 25.9 (16:10) 13.2 (00:00) 19.5 6.39 (23:40) 1.67 (16:00) 0 0 0 0 0
13-06-2020 25.3 (16:20) 11.9 (00:00) 18.6 5.28 (22:40) 1.39 (21:50) 0 0 0 0 0
12-06-2020 21.3 (17:30) 13.8 (00:00) 17.5 6.94 (13:50) 1.94 (13:10) 4.6 3.4 1.2 0 0
11-06-2020 23.3 (15:40) 12.3 (00:00) 17.8 6.94 (20:30) 2.22 (12:00) 0.6 0 0 0 0.6
10-06-2020 27 (14:50) 12.5 (00:00) 19.8 4.44 (14:00) 1.67 (18:00) 0 0 0 0 0
09-06-2020 25.9 (14:40) 12.7 (00:00) 19.3 6.11 (12:50) 1.94 (12:30) 0 0 0 0 0
08-06-2020 22.7 (16:30) 14.1 (07:10) 18.4 7.5 (13:10) 1.94 (13:10) 0 0 0 0 0
07-06-2020 24.3 (15:30) 15.1 (00:00) 19.7 6.67 (16:50) 1.94 (16:50) 0 0 0 0 0

Gráficas

Temp. máximas Temp. mínimas Temp. medias Precipitaciones Rachas de viento máximas Velocidades máximas media en intervalos de 10 minutos

Datos horarios

Fecha y hora oficial Temperatura (ºC) Velocidad del viento (km/h) Dirección del viento Racha (km/h) Dirección de racha Precipitación (mm) Presión (hPa) Tendencia (hPa) Humedad (%)
2020-07-06 23:00:00 -- -- -- -- -- -- -- -- --
2020-07-06 22:00:00 23.8 3 Norte 4 Noroeste 0 -- -- 40
2020-07-06 21:00:00 26.7 0 Calma 5 Norte 0 -- -- 36
2020-07-06 20:00:00 29.7 0 Calma 10 Sudoeste 0 -- -- 31
2020-07-06 19:00:00 32 4 Sur 14 Sudoeste 0 -- -- 29
2020-07-06 18:00:00 33.2 5 Sur 15 Sudoeste 0 -- -- 27
2020-07-06 17:00:00 34.8 6 Sur 17 Sur 0 -- -- 26
2020-07-06 16:00:00 35.1 6 Sur 18 Sur 0 -- -- 26
2020-07-06 15:00:00 34.2 7 Sur 20 Sur 0 -- -- 30
2020-07-06 14:00:00 33.6 6 Sur 15 Sur 0 -- -- 32
2020-07-06 13:00:00 32.2 4 Sur 14 Sudeste 0 -- -- 35
2020-07-06 12:00:00 30.1 5 Sur 13 Sur 0 -- -- 36
2020-07-06 11:00:00 27.4 4 Sur 9 Sur 0 -- -- 38
2020-07-06 10:00:00 22.2 2 Sur 5 Sur 0 -- -- 58
2020-07-06 09:00:00 16.9 0 Calma 2 Norte 0 -- -- 75
2020-07-06 08:00:00 15 0 Calma 3 Norte 0 -- -- 75
2020-07-06 07:00:00 15.2 0 Calma 3 Norte 0 -- -- 72
2020-07-06 06:00:00 15.7 0 Calma 3 Norte 0 -- -- 74
2020-07-06 05:00:00 16.1 2 Norte 3 Norte 0 -- -- 74
2020-07-06 04:00:00 16.7 2 Noroeste 4 Norte 0 -- -- 74
2020-07-06 03:00:00 17.1 2 Norte 4 Norte 0 -- -- 74
2020-07-06 02:00:00 17.6 0 Calma -- -- 0 -- -- 74
2020-07-06 01:00:00 18.1 3 Norte 4 Norte 0 -- -- 72
2020-07-06 00:00:00 18.9 3 Norte 4 Norte 0 -- -- 68
2020-07-05 23:00:00 20.3 2 Norte 4 Noroeste 0 -- -- 64
2020-07-05 22:00:00 22 2 Noroeste 5 Norte 0 -- -- 59
2020-07-05 21:00:00 24.5 0 Calma 5 Nordeste 0 -- -- 54
2020-07-05 20:00:00 26.3 0 Calma 10 Sudoeste 0 -- -- 49
2020-07-05 19:00:00 27.3 3 Este 14 Sudoeste 0 -- -- 47
2020-07-05 18:00:00 29 4 Sudeste 17 Sudoeste 0 -- -- 44
2020-07-05 17:00:00 31.1 8 Sur 16 Sur 0 -- -- 39
2020-07-05 16:00:00 32.4 5 Sur 18 Sudeste 0 -- -- 37
2020-07-05 15:00:00 32 7 Sur 18 Sur 0 -- -- 39
2020-07-05 14:00:00 31.7 6 Sur 21 Sur 0 -- -- 39
2020-07-05 13:00:00 30.7 7 Sur 18 Sudeste 0 -- -- 41
2020-07-05 12:00:00 27.9 5 Sur 14 Sur 0 -- -- 57
2020-07-05 11:00:00 25.3 3 Sur 11 Sudoeste 0 -- -- 64
2020-07-05 10:00:00 22 5 Sur 12 Sur 0 -- -- 77
2020-07-05 09:00:00 18.5 2 Sur 4 Sur 0 -- -- 86
2020-07-05 08:00:00 17 2 Norte 4 Norte 0 -- -- 88
2020-07-05 07:00:00 16.7 2 Norte 4 Norte 0 -- -- 88
2020-07-05 06:00:00 16.8 2 Noroeste 4 Norte 0 -- -- 88
2020-07-05 05:00:00 16.9 3 Norte 4 Norte 0 -- -- 88
2020-07-05 04:00:00 17.1 2 Norte 4 Norte 0 -- -- 88
2020-07-05 03:00:00 17.5 2 Norte 3 Norte 0 -- -- 89
2020-07-05 02:00:00 17.8 2 Norte 3 Norte 0 -- -- 88
2020-07-05 01:00:00 18.3 2 Norte 3 Norte 0 -- -- 86
2020-07-05 00:00:00 19 2 Norte 4 Norte 0 -- -- 84
2020-07-04 23:00:00 20.3 2 Noroeste 3 Norte 0 -- -- 82
2020-07-04 22:00:00 22.1 0 Calma 5 Nordeste 0 -- -- 79
2020-07-04 21:00:00 23.5 0 Calma 9 Oeste 0 -- -- 74
2020-07-04 20:00:00 25 4 Sur 12 Sudoeste 0 -- -- 70
2020-07-04 19:00:00 26.3 5 Sudeste 17 Sudoeste 0 -- -- 66
2020-07-04 18:00:00 27.7 6 Sudeste 21 Sur 0 -- -- 61
2020-07-04 17:00:00 29.7 8 Sur 19 Sudoeste 0 -- -- 55
2020-07-04 16:00:00 30.1 7 Sur 23 Oeste 0 -- -- 55
2020-07-04 15:00:00 30.1 7 Sudeste 20 Sudoeste 0 -- -- 56
2020-07-04 14:00:00 29.8 7 Sur 20 Sudoeste 0 -- -- 55
2020-07-04 13:00:00 28.8 6 Sur 19 Sur 0 -- -- 58
2020-07-04 12:00:00 27.3 7 Sur 18 Sur 0 -- -- 64
2020-07-04 11:00:00 25.5 5 Sur 15 Sur 0 -- -- 69
2020-07-04 10:00:00 22.8 4 Sur 13 Sur 0 -- -- 79
2020-07-04 09:00:00 19.9 0 Calma 4 Sudeste 0 -- -- 85
2020-07-04 08:00:00 18.5 0 Calma 3 Sur 0 -- -- 88
2020-07-04 07:00:00 17.5 2 Norte 3 Norte 0 -- -- 90
2020-07-04 06:00:00 17.9 0 Calma 3 Norte 0 -- -- 88
2020-07-04 05:00:00 18.2 0 Calma 3 Norte 0 -- -- 87
2020-07-04 04:00:00 18.4 0 Calma 3 Norte 0 -- -- 85
2020-07-04 03:00:00 18.8 0 Calma 4 Norte 0 -- -- 83
2020-07-04 02:00:00 19.4 0 Calma 3 Norte 0 -- -- 80
2020-07-04 01:00:00 20.1 0 Calma 3 Norte 0 -- -- 76
2020-07-04 00:00:00 21.1 0 Calma 4 Noroeste 0 -- -- 71
2020-07-03 23:00:00 22.4 3 Norte 4 Norte 0 -- -- 67
2020-07-03 22:00:00 24.3 3 Norte 5 Norte 0 -- -- 60
2020-07-03 21:00:00 26.4 2 Norte 5 Oeste 0 -- -- 53
2020-07-03 20:00:00 28.8 0 Calma 11 Sudoeste 0 -- -- 45
2020-07-03 19:00:00 30.2 5 Sur 19 Sur 0 -- -- 40
2020-07-03 18:00:00 31.9 6 Sur 17 Sur 0 -- -- 35
2020-07-03 17:00:00 33.8 5 Sur 17 Sur 0 -- -- 29
2020-07-03 16:00:00 35.2 7 Sur 19 Sur 0 -- -- 23
2020-07-03 15:00:00 35 5 Sur 17 Noroeste 0 -- -- 22
2020-07-03 14:00:00 34.2 4 Norte 14 Noroeste 0 -- -- 23
2020-07-03 13:00:00 33.2 3 Norte 15 Noroeste 0 -- -- 22
2020-07-03 12:00:00 31.3 4 Nordeste 18 Norte 0 -- -- 26
2020-07-03 11:00:00 29.7 6 Norte 20 Oeste 0 -- -- 36
2020-07-03 10:00:00 25.4 2 Norte 6 Sur 0 -- -- 45
2020-07-03 09:00:00 19.5 0 Calma 3 Sudoeste 0 -- -- 65
2020-07-03 08:00:00 18.3 0 Calma 4 Noroeste 0 -- -- 66
2020-07-03 07:00:00 18.8 2 Noroeste 5 Noroeste 0 -- -- 62
2020-07-03 06:00:00 19.6 2 Noroeste 5 Sudeste 0 -- -- 61
2020-07-03 05:00:00 21 0 Calma 11 Norte 0 -- -- 58
2020-07-03 04:00:00 22.2 5 Norte 14 Nordeste 0 -- -- 54
2020-07-03 03:00:00 22.5 6 Norte 15 Noroeste 0 -- -- 53
2020-07-03 02:00:00 22.5 3 Norte 12 Nordeste 0 -- -- 54
2020-07-03 01:00:00 22.3 4 Norte 13 Noroeste 0 -- -- 55
2020-07-03 00:00:00 21.8 4 Norte 5 Norte 0 -- -- 57
2020-07-02 23:00:00 23.9 3 Norte 11 Nordeste 0 -- -- 51
2020-07-02 22:00:00 24.9 3 Norte 13 Sur 0 -- -- 48
2020-07-02 21:00:00 27.9 3 Oeste 13 Sudeste 0 -- -- 42
2020-07-02 20:00:00 29.7 2 Sudoeste 13 Nordeste 0 -- -- 35
2020-07-02 19:00:00 31.4 4 Este 20 Sur 0 -- -- 31
2020-07-02 18:00:00 32.3 6 Sudeste 20 Sudoeste 0 -- -- 29
2020-07-02 17:00:00 33.7 5 Nordeste 18 Norte 0 -- -- 30
2020-07-02 16:00:00 34.2 6 Norte 21 Noroeste 0 -- -- 31
2020-07-02 15:00:00 33.8 5 Noroeste 22 Norte 0 -- -- 32
2020-07-02 14:00:00 33.6 5 Norte 24 Nordeste 0 -- -- 33
2020-07-02 13:00:00 32.9 8 Norte 27 Noroeste 0 -- -- 33
2020-07-02 12:00:00 32 5 Norte 21 Norte 0 -- -- 37
2020-07-02 11:00:00 30.5 6 Norte 18 Norte 0 -- -- 41
2020-07-02 10:00:00 26 3 Sur 9 Sudoeste 0 -- -- 47
2020-07-02 09:00:00 21.2 0 Calma 6 Sur 0 -- -- 57
2020-07-02 08:00:00 19.8 0 Calma 6 Sudoeste 0 -- -- 60
2020-07-02 07:00:00 19.3 0 Calma 6 Sudoeste 0 -- -- 55
2020-07-02 06:00:00 19.9 2 Sudoeste 8 Noroeste 0 -- -- 51
2020-07-02 05:00:00 19.2 2 Noroeste 6 Norte 0 -- -- 52
2020-07-02 04:00:00 18.7 2 Norte 4 Noroeste 0 -- -- 53
2020-07-02 03:00:00 18.8 2 Noroeste 4 Norte 0 -- -- 51
2020-07-02 02:00:00 19.8 0 Calma 4 Norte 0 -- -- 48
2020-07-02 01:00:00 21 0 Calma 4 Norte 0 -- -- 47
2020-07-02 00:00:00 22.5 0 Calma 5 Noroeste 0 -- -- 46
2020-07-01 23:00:00 24.3 0 Calma 6 Noroeste 0 -- -- 43
2020-07-01 22:00:00 25.9 2 Noroeste 13 Noroeste 0 -- -- 38
2020-07-01 21:00:00 27.6 3 Noroeste 12 Norte 0 -- -- 40
2020-07-01 20:00:00 30.5 0 Calma 9 Norte 0 -- -- 41
2020-07-01 19:00:00 32.2 3 Norte 14 Oeste 0 -- -- 34
2020-07-01 18:00:00 33.5 4 Norte 15 Nordeste 0 -- -- 31
2020-07-01 17:00:00 35.6 4 Norte 15 Noroeste 0 -- -- 26
2020-07-01 16:00:00 36.2 5 Norte 17 Norte 0 -- -- 26
2020-07-01 15:00:00 35.5 5 Norte 18 Norte 0 -- -- 23
2020-07-01 14:00:00 34.8 6 Norte 19 Noroeste 0 -- -- 20
2020-07-01 13:00:00 34 4 Norte 17 Nordeste 0 -- -- 22
2020-07-01 12:00:00 32.5 5 Norte 13 Este 0 -- -- 26
2020-07-01 11:00:00 30.2 4 Sudeste 17 Sudeste 0 -- -- 40
2020-07-01 10:00:00 23.9 3 Sur 8 Sudeste 0 -- -- 59
2020-07-01 09:00:00 17.9 0 Calma 5 Sur 0 -- -- 77
2020-07-01 08:00:00 16.2 0 Calma 4 Noroeste 0 -- -- 80
2020-07-01 07:00:00 16 2 Norte 4 Noroeste 0 -- -- 77
2020-07-01 06:00:00 15.9 2 Noroeste 4 Norte 0 -- -- 77
2020-07-01 05:00:00 16.1 0 Calma 4 Norte 0 -- -- 77
2020-07-01 04:00:00 16.7 2 Norte 4 Norte 0 -- -- 77
2020-07-01 03:00:00 17.1 0 Calma 3 Norte 0 -- -- 81
2020-07-01 02:00:00 18.1 0 Calma 2 Norte 0 -- -- 83
2020-07-01 01:00:00 19.1 0 Calma 3 Norte 0 -- -- 81
2020-07-01 00:00:00 19.7 0 Calma 4 Noroeste 0 -- -- 75
2020-06-30 23:00:00 20.7 2 Noroeste 4 Norte 0 -- -- 70
2020-06-30 22:00:00 22.6 3 Norte 4 Norte 0 -- -- 65
2020-06-30 21:00:00 24.8 0 Calma 4 Sur 0 -- -- 59
2020-06-30 20:00:00 27.1 2 Sur 15 Sur 0 -- -- 51
2020-06-30 19:00:00 28.2 3 Sur 16 Sur 0 -- -- 47
2020-06-30 18:00:00 29.3 6 Sur 18 Sudoeste 0 -- -- 43
2020-06-30 17:00:00 31.3 5 Sudeste 20 Sur 0 -- -- 37
2020-06-30 16:00:00 31.7 8 Sur 19 Sudoeste 0 -- -- 35
2020-06-30 15:00:00 31.7 5 Sudeste 21 Sur 0 -- -- 36
2020-06-30 14:00:00 31.6 6 Sudeste 15 Sudeste 0 -- -- 36
2020-06-30 13:00:00 29.9 6 Sur 17 Sur 0 -- -- 41
2020-06-30 12:00:00 28 6 Sur 14 Sur 0 -- -- 46
2020-06-30 11:00:00 26.3 5 Sur 12 Sur 0 -- -- 44
2020-06-30 10:00:00 22.6 0 Calma 4 Sur 0 -- -- 50
2020-06-30 09:00:00 18.4 0 Calma 4 Sur 0 -- -- 67
2020-06-30 08:00:00 16.6 0 Calma 3 Norte 0 -- -- 69
2020-06-30 07:00:00 16.6 0 Calma 4 Norte 0 -- -- 66
2020-06-30 06:00:00 16.6 2 Norte 3 Norte 0 -- -- 62
2020-06-30 05:00:00 16.9 0 Calma 5 Norte 0 -- -- 61
2020-06-30 04:00:00 17 0 Calma 3 Noroeste 0 -- -- 61
2020-06-30 03:00:00 17.2 0 Calma 4 Norte 0 -- -- 61
2020-06-30 02:00:00 17.5 2 Noroeste 4 Norte 0 -- -- 60
2020-06-30 01:00:00 18.1 2 Noroeste 4 Norte 0 -- -- 59
2020-06-30 00:00:00 19 3 Norte 4 Norte 0 -- -- 56
2020-06-29 23:00:00 20.4 3 Norte 4 Norte 0 -- -- 51
2020-06-29 22:00:00 22.4 3 Noroeste 6 Nordeste 0 -- -- 48
2020-06-29 21:00:00 24.6 2 Norte 4 Sur 0 -- -- 44
2020-06-29 20:00:00 27.1 0 Calma 11 Sur 0 -- -- 39
2020-06-29 19:00:00 28.8 3 Sudeste 14 Sur 0 -- -- 33
2020-06-29 18:00:00 30.1 4 Sur 17 Sur 0 -- -- 29
2020-06-29 17:00:00 32.3 6 Sur 19 Sudoeste 0 -- -- 27
2020-06-29 16:00:00 32.5 7 Sur 19 Sudoeste 0 -- -- 28
2020-06-29 15:00:00 32.3 6 Sur 23 Sur 0 -- -- 31
2020-06-29 14:00:00 31.9 7 Sur 18 Sur 0 -- -- 31
2020-06-29 13:00:00 30.7 6 Sur 21 Sudoeste 0 -- -- 34
2020-06-29 12:00:00 29.6 6 Sur 14 Sudeste 0 -- -- 43
2020-06-29 11:00:00 27.2 3 Sudeste 6 Sur 0 -- -- 49
2020-06-29 10:00:00 22.9 2 Sur 5 Sudoeste 0 -- -- 60
2020-06-29 09:00:00 18.2 0 Calma 2 Este 0 -- -- 81
2020-06-29 08:00:00 16.6 0 Calma -- -- 0 -- -- 83
2020-06-29 07:00:00 16.5 0 Calma 3 Norte 0 -- -- 82
2020-06-29 06:00:00 16.8 0 Calma 4 Norte 0 -- -- 82
2020-06-29 05:00:00 17.3 0 Calma 3 Norte 0 -- -- 79
2020-06-29 04:00:00 18 0 Calma 3 Norte 0 -- -- 78
2020-06-29 03:00:00 18.8 0 Calma 3 Noroeste 0 -- -- 77
2020-06-29 02:00:00 19.4 2 Norte 3 Norte 0 -- -- 74
2020-06-29 01:00:00 20.3 3 Norte 4 Norte 0 -- -- 72
2020-06-29 00:00:00 21.2 0 Calma 3 Noroeste 0 -- -- 67
2020-06-28 23:00:00 22.6 2 Norte 4 Norte 0 -- -- 60
2020-06-28 22:00:00 24.5 2 Norte 4 Norte 0 -- -- 56
2020-06-28 21:00:00 26.5 3 Noroeste 4 Sur 0 -- -- 52
2020-06-28 20:00:00 28.9 0 Calma 11 Oeste 0 -- -- 45
2020-06-28 19:00:00 30.4 3 Sur 14 Sudoeste 0 -- -- 39
2020-06-28 18:00:00 32.5 7 Sur 17 Sur 0 -- -- 37
2020-06-28 17:00:00 34.3 6 Sur 15 Sur 0 -- -- 32
2020-06-28 16:00:00 34.2 6 Sur 19 Sur 0 -- -- 32
2020-06-28 15:00:00 34.1 6 Sur 17 Sur 0 -- -- 34
2020-06-28 14:00:00 33.4 5 Sur 16 Sudoeste 0 -- -- 35
2020-06-28 13:00:00 32.4 6 Sur 19 Sur 0 -- -- 38
2020-06-28 12:00:00 30.7 4 Sur 15 Sur 0 -- -- 41
2020-06-28 11:00:00 28.4 4 Sur 9 Sur 0 -- -- 45
2020-06-28 10:00:00 24 3 Sur 5 Sur 0 -- -- 57
2020-06-28 09:00:00 19.1 0 Calma 3 Norte 0 -- -- 73
2020-06-28 08:00:00 17.2 2 Norte 4 Norte 0 -- -- 75
2020-06-28 07:00:00 17.4 2 Norte 4 Norte 0 -- -- 72
2020-06-28 06:00:00 18 2 Noroeste 4 Norte 0 -- -- 71
2020-06-28 05:00:00 18.7 2 Norte 4 Norte 0 -- -- 70
2020-06-28 04:00:00 19.4 2 Norte 4 Norte 0 -- -- 68
2020-06-28 03:00:00 20.3 0 Calma 5 Norte 0 -- -- 66
2020-06-28 02:00:00 21 2 Norte 9 Norte 0 -- -- 66
2020-06-28 01:00:00 21.6 0 Calma 5 Norte 0 -- -- 64
2020-06-28 00:00:00 22.9 3 Noroeste 8 Sudeste 0 -- -- 60
2020-06-27 23:00:00 24.6 2 Oeste 19 Noroeste 0 -- -- 54
2020-06-27 22:00:00 25.7 4 Norte 22 Norte 0 -- -- 51
2020-06-27 21:00:00 27 8 Norte 27 Nordeste 0 -- -- 47
2020-06-27 20:00:00 28.5 5 Norte 18 Norte 0 -- -- 45
2020-06-27 19:00:00 30 3 Nordeste 17 Noroeste 0 -- -- 42
2020-06-27 18:00:00 30.8 4 Norte 20 Noroeste 0 -- -- 38
2020-06-27 17:00:00 32 6 Norte 21 Norte 0 -- -- 35
2020-06-27 16:00:00 32.1 6 Norte 23 Norte 0 -- -- 34
2020-06-27 15:00:00 31.9 6 Norte 21 Norte 0 -- -- 33
2020-06-27 14:00:00 31.7 5 Norte 21 Norte 0 -- -- 37
2020-06-27 13:00:00 30.9 5 Nordeste 20 Nordeste 0 -- -- 37
2020-06-27 12:00:00 29.6 5 Norte 14 Oeste 0 -- -- 35
2020-06-27 11:00:00 27.1 4 Norte 13 Noroeste 0 -- -- 46
2020-06-27 10:00:00 23.8 4 Este 13 Norte 0 -- -- 49
2020-06-27 09:00:00 17.4 0 Calma 3 Norte 0 -- -- 67
2020-06-27 08:00:00 15.8 0 Calma 5 Noroeste 0 -- -- 72
2020-06-27 07:00:00 16 0 Calma 4 Norte 0 -- -- 70
2020-06-27 06:00:00 16.5 2 Noroeste 6 Sur 0 -- -- 67
2020-06-27 05:00:00 16.9 2 Oeste 14 Noroeste 0 -- -- 61
2020-06-27 04:00:00 16.7 0 Calma 5 Norte 0 -- -- 60
2020-06-27 03:00:00 16.2 0 Calma 4 Norte 0 -- -- 64
2020-06-27 02:00:00 16.8 0 Calma 4 Norte 0 -- -- 67
2020-06-27 01:00:00 18 2 Noroeste 5 Norte 0 -- -- 64
2020-06-27 00:00:00 18.9 0 Calma 9 Norte 0 -- -- 63
2020-06-26 23:00:00 20.2 2 Noroeste 10 Oeste 0 -- -- 58
2020-06-26 22:00:00 21.9 2 Sudeste 11 Norte 0 -- -- 55
2020-06-26 21:00:00 23.7 3 Norte 13 Norte 0 -- -- 52
2020-06-26 20:00:00 25.6 3 Norte 14 Nordeste 0 -- -- 52
2020-06-26 19:00:00 27.2 3 Nordeste 16 Sudoeste 0 -- -- 51
2020-06-26 18:00:00 27.7 5 Norte 21 Oeste 0 -- -- 50
2020-06-26 17:00:00 29.5 5 Norte 20 Norte 0 -- -- 48
2020-06-26 16:00:00 29.6 6 Norte 21 Norte 0 -- -- 48
2020-06-26 15:00:00 29.4 5 Norte 17 Nordeste 0 -- -- 50
2020-06-26 14:00:00 28.2 5 Nordeste 24 Norte 0 -- -- 52
2020-06-26 13:00:00 26.3 4 Norte 21 Norte 0 -- -- 60
2020-06-26 12:00:00 25.5 6 Norte 20 Nordeste 0 -- -- 60
2020-06-26 11:00:00 24.7 3 Este 15 Sudeste 0 -- -- 60
2020-06-26 10:00:00 21.5 3 Sur 9 Sur 0 -- -- 74
2020-06-26 09:00:00 17.2 2 Sur 4 Sur 0 -- -- 91
2020-06-26 08:00:00 15.6 0 Calma 3 Norte 0 -- -- 93
2020-06-26 07:00:00 15.5 0 Calma 3 Norte 0 -- -- 92
2020-06-26 06:00:00 15.7 0 Calma 2 Norte 0 -- -- 91
2020-06-26 05:00:00 16.1 0 Calma 3 Norte 0 -- -- 91
2020-06-26 04:00:00 16.4 2 Norte 3 Norte 0 -- -- 89
2020-06-26 03:00:00 17.1 0 Calma 3 Norte 0 -- -- 88
2020-06-26 02:00:00 17.7 2 Noroeste 3 Noroeste 0 -- -- 85
2020-06-26 01:00:00 18.7 2 Noroeste -- -- 0 -- -- 82
2020-06-26 00:00:00 20.1 2 Norte 3 Nordeste 0 -- -- 78
2020-06-25 23:00:00 21.2 0 Calma 4 Norte 0 -- -- 74
2020-06-25 22:00:00 22 3 Norte 5 Norte 0 -- -- 60
2020-06-25 21:00:00 24.3 2 Noroeste 4 Oeste 0 -- -- 54
2020-06-25 20:00:00 26.5 2 Sudoeste 11 Sur 0 -- -- 46
2020-06-25 19:00:00 27.7 3 Sudeste 12 Sur 0 -- -- 40
2020-06-25 18:00:00 28.4 6 Sudeste 19 Sudeste 0 -- -- 39
2020-06-25 17:00:00 29.9 6 Sur 18 Sur 0 -- -- 37
2020-06-25 16:00:00 30.4 7 Sudeste 24 Este 0 -- -- 37
2020-06-25 15:00:00 30.1 7 Sur 18 Sur 0 -- -- 38
2020-06-25 14:00:00 30.1 6 Sur 19 Este 0 -- -- 36
2020-06-25 13:00:00 29.5 7 Sudeste 19 Sur 0 -- -- 38
2020-06-25 12:00:00 27.6 4 Sur 15 Sur 0 -- -- 48
2020-06-25 11:00:00 25.9 6 Sur 13 Sudoeste 0 -- -- 51
2020-06-25 10:00:00 22.5 4 Sur 8 Sur 0 -- -- 57
2020-06-25 09:00:00 17.5 0 Calma 2 Norte 0 -- -- 79
2020-06-25 08:00:00 15.5 2 Norte 3 Noroeste 0 -- -- 80
2020-06-25 07:00:00 15.1 0 Calma 4 Norte 0 -- -- 76
2020-06-25 06:00:00 15.3 2 Norte 4 Norte 0 -- -- 76
2020-06-25 05:00:00 15.7 2 Norte 4 Norte 0 -- -- 75
2020-06-25 04:00:00 16.2 3 Norte 4 Norte 0 -- -- 74
2020-06-25 03:00:00 16.4 2 Norte 4 Norte 0 -- -- 76
2020-06-25 02:00:00 16.8 2 Norte 4 Norte 0 -- -- 70
2020-06-25 01:00:00 17.3 2 Noroeste 4 Norte 0 -- -- 74
2020-06-25 00:00:00 17.9 2 Norte 4 Norte 0 -- -- 76
2020-06-24 23:00:00 19.3 2 Norte 4 Nordeste 0 -- -- 73
2020-06-24 22:00:00 20.7 2 Norte 4 Norte 0 -- -- 66
2020-06-24 21:00:00 22.7 0 Calma 5 Sudeste 0 -- -- 59
2020-06-24 20:00:00 24.1 3 Sur 10 Sudoeste 0 -- -- 57
2020-06-24 19:00:00 25.1 4 Sudeste 15 Sur 0 -- -- 59
2020-06-24 18:00:00 26.5 4 Sur 16 Sur 0 -- -- 57
2020-06-24 17:00:00 28.9 6 Sur 18 Sur 0 -- -- 49
2020-06-24 16:00:00 29.6 5 Sur 16 Sur 0 -- -- 47
2020-06-24 15:00:00 30.5 5 Sudeste 16 Nordeste 0 -- -- 44
2020-06-24 14:00:00 30.3 7 Sudeste 17 Sur 0 -- -- 42
2020-06-24 13:00:00 29.9 7 Sur 17 Sudeste 0 -- -- 40
2020-06-24 12:00:00 29.2 5 Sur 16 Sur 0 -- -- 43
2020-06-24 11:00:00 26.8 5 Sur 11 Sudoeste 0 -- -- 49
2020-06-24 10:00:00 23.2 3 Sudeste 7 Sur 0 -- -- 60
2020-06-24 09:00:00 18.5 0 Calma 3 Sur 0 -- -- 78
2020-06-24 08:00:00 16.7 0 Calma 4 Norte 0 -- -- 79
2020-06-24 07:00:00 16.4 2 Norte 5 Norte 0 -- -- 80
2020-06-24 06:00:00 16.6 2 Norte 4 Norte 0 -- -- 82
2020-06-24 05:00:00 17.4 2 Norte 4 Norte 0 -- -- 80
2020-06-24 04:00:00 17.8 2 Noroeste 5 Norte 0 -- -- 79
2020-06-24 03:00:00 17.3 0 Calma 5 Norte 0 -- -- 79
2020-06-24 02:00:00 17.6 2 Noroeste 4 Norte 0 -- -- 77
2020-06-24 01:00:00 18.3 2 Noroeste 4 Noroeste 0 -- -- 75
2020-06-24 00:00:00 19.2 2 Norte 4 Noroeste 0 -- -- 72
2020-06-23 23:00:00 20.5 2 Noroeste 4 Norte 0 -- -- 67
2020-06-23 22:00:00 22.3 0 Calma 9 Este 0 -- -- 60
2020-06-23 21:00:00 24.4 3 Sudeste 9 Sur 0 -- -- 51
2020-06-23 20:00:00 26 4 Sudeste 17 Sur 0 -- -- 47
2020-06-23 19:00:00 27.6 4 Sur 19 Sur 0 -- -- 44
2020-06-23 18:00:00 29.6 5 Sur 20 Sur 0 -- -- 40
2020-06-23 17:00:00 30.9 6 Sudeste 18 Sur 0 -- -- 38
2020-06-23 16:00:00 31.5 6 Sur 15 Sur 0 -- -- 36
2020-06-23 15:00:00 30.4 5 Sudeste 17 Sur 0 -- -- 43
2020-06-23 14:00:00 29.2 6 Sudeste 18 Sudoeste 0 -- -- 46
2020-06-23 13:00:00 27.6 5 Sudeste 18 Sur 0 -- -- 48
2020-06-23 12:00:00 28.1 6 Sudeste 19 Sur 0 -- -- 48
2020-06-23 11:00:00 26.3 4 Sudeste 11 Sur 0 -- -- 51
2020-06-23 10:00:00 23.5 4 Sur 10 Sur 0 -- -- 53
2020-06-23 09:00:00 20.2 2 Sudeste 8 Sudoeste 0 -- -- 63
2020-06-23 08:00:00 17.8 3 Norte 5 Norte 0 -- -- 69
2020-06-23 07:00:00 17.4 3 Norte 5 Norte 0 -- -- 69
2020-06-23 06:00:00 16.9 3 Noroeste 5 Norte 0 -- -- 71
2020-06-23 05:00:00 16.9 3 Norte 5 Norte 0 -- -- 74
2020-06-23 04:00:00 17.1 3 Norte 5 Noroeste 0 -- -- 71
2020-06-23 03:00:00 17.3 3 Norte 6 Norte 0 -- -- 69
2020-06-23 02:00:00 17.4 0 Calma 5 Norte 0 -- -- 68
2020-06-23 01:00:00 17.7 2 Norte 4 Norte 0 -- -- 67
2020-06-23 00:00:00 18.1 3 Norte 4 Norte 0 -- -- 65
2020-06-22 23:00:00 19.2 2 Norte 4 Norte 0 -- -- 62
2020-06-22 22:00:00 21 2 Norte 4 Norte 0 -- -- 56
2020-06-22 21:00:00 23.1 0 Calma 8 Noroeste 0 -- -- 51
2020-06-22 20:00:00 24.8 2 Este 9 Sur 0 -- -- 45
2020-06-22 19:00:00 26.8 2 Este 12 Sudoeste 0 -- -- 40
2020-06-22 18:00:00 29.8 4 Este 18 Sudeste 0 -- -- 31
2020-06-22 17:00:00 32.9 5 Sur 15 Sudoeste 0 -- -- 24
2020-06-22 16:00:00 34.2 7 Sudeste 18 Sudeste 0 -- -- 20
2020-06-22 15:00:00 33.7 6 Este 23 Sudeste 0 -- -- 23
2020-06-22 14:00:00 31.8 6 Sur 17 Sudoeste 0 -- -- 34
2020-06-22 13:00:00 29.8 5 Sur 18 Sur 0 -- -- 38
2020-06-22 12:00:00 28.5 5 Sur 12 Este 0 -- -- 45
2020-06-22 11:00:00 26.4 5 Sur 12 Sur 0 -- -- 50
2020-06-22 10:00:00 22.7 4 Sur 6 Sur 0 -- -- 57
2020-06-22 09:00:00 17.5 0 Calma 3 Norte 0 -- -- 75
2020-06-22 08:00:00 15.7 0 Calma 3 Norte 0 -- -- 78
2020-06-22 07:00:00 15.8 2 Noroeste 3 Norte 0 -- -- 76
2020-06-22 06:00:00 16.1 2 Noroeste 4 Norte 0 -- -- 75
2020-06-22 05:00:00 16.6 0 Calma 3 Noroeste 0 -- -- 73
2020-06-22 04:00:00 17.1 0 Calma 3 Norte 0 -- -- 72
2020-06-22 03:00:00 17.7 2 Norte 4 Norte 0 -- -- 70
2020-06-22 02:00:00 18.3 2 Noroeste 4 Norte 0 -- -- 65
2020-06-22 01:00:00 19 2 Noroeste 4 Norte 0 -- -- 63
2020-06-22 00:00:00 19.9 2 Norte 4 Noroeste 0 -- -- 60
2020-06-21 23:00:00 21.1 3 Norte 4 Norte 0 -- -- 55
2020-06-21 22:00:00 22.9 3 Norte 5 Norte 0 -- -- 51
2020-06-21 21:00:00 25.1 3 Norte 5 Norte 0 -- -- 48
2020-06-21 20:00:00 28.2 0 Calma 10 Sudoeste 0 -- -- 40
2020-06-21 19:00:00 30.7 3 Sur 15 Sudoeste 0 -- -- 32
2020-06-21 18:00:00 32.3 4 Sur 17 Sur 0 -- -- 30
2020-06-21 17:00:00 34.9 6 Sur 16 Sudeste 0 -- -- 26
2020-06-21 16:00:00 35.6 6 Sur 18 Sudeste 0 -- -- 27
2020-06-21 15:00:00 35.4 5 Sudeste 14 Sur 0 -- -- 27
2020-06-21 14:00:00 34.1 5 Sur 15 Sur 0 -- -- 32
2020-06-21 13:00:00 32.9 5 Sur 15 Sur 0 -- -- 33
2020-06-21 12:00:00 31.3 5 Sur 14 Sur 0 -- -- 38
2020-06-21 11:00:00 28.4 3 Sur 7 Sur 0 -- -- 46
2020-06-21 10:00:00 23.1 3 Sur 5 Sur 0 -- -- 58
2020-06-21 09:00:00 17.6 0 Calma 3 Sudeste 0 -- -- 77
2020-06-21 08:00:00 15.6 2 Norte 5 Norte 0 -- -- 77
2020-06-21 07:00:00 15.7 2 Norte 5 Noroeste 0 -- -- 73
2020-06-21 06:00:00 16 2 Norte 4 Norte 0 -- -- 72
2020-06-21 05:00:00 16.5 2 Noroeste 4 Norte 0 -- -- 71
2020-06-21 04:00:00 16.7 2 Norte 5 Noroeste 0 -- -- 73
2020-06-21 03:00:00 16.9 2 Noroeste 4 Norte 0 -- -- 74
2020-06-21 02:00:00 17.2 0 Calma 3 Norte 0 -- -- 75
2020-06-21 01:00:00 17.7 0 Calma 4 Norte 0 -- -- 73
2020-06-21 00:00:00 18.4 2 Noroeste 3 Noroeste 0 -- -- 70
2020-06-20 23:00:00 19.3 3 Norte 4 Norte 0 -- -- 61
2020-06-20 22:00:00 21.1 3 Norte 4 Noroeste 0 -- -- 61
2020-06-20 21:00:00 23.1 2 Norte 3 Norte 0 -- -- 58
2020-06-20 20:00:00 25.5 0 Calma 9 Sur 0 -- -- 50
2020-06-20 19:00:00 26.9 4 Sur 13 Sur 0 -- -- 42
2020-06-20 18:00:00 28.1 5 Sur 15 Sudoeste 0 -- -- 39
2020-06-20 17:00:00 29.6 6 Sur 18 Sur 0 -- -- 39
2020-06-20 16:00:00 30.1 7 Sur 20 Sur 0 -- -- 37
2020-06-20 15:00:00 30.5 6 Sur 18 Sur 0 -- -- 37
2020-06-20 14:00:00 29.6 6 Sur 21 Sur 0 -- -- 40
2020-06-20 13:00:00 29 5 Sur 14 Sur 0 -- -- 47
2020-06-20 12:00:00 26.9 4 Sur 12 Sur 0 -- -- 54
2020-06-20 11:00:00 24.4 3 Sur 8 Este 0 -- -- 58
2020-06-20 10:00:00 20.3 3 Sur 6 Sur 0 -- -- 68
2020-06-20 09:00:00 15.8 0 Calma 3 Sur 0 -- -- 86
2020-06-20 08:00:00 14.1 0 Calma 2 Norte 0 -- -- 90
2020-06-20 07:00:00 14.4 0 Calma 3 Noroeste 0 -- -- 89
2020-06-20 06:00:00 14.9 0 Calma 3 Norte 0 -- -- 87
2020-06-20 05:00:00 15.5 0 Calma 3 Noroeste 0 -- -- 85
2020-06-20 04:00:00 16.1 0 Calma 3 Norte 0 -- -- 82
2020-06-20 03:00:00 16.9 0 Calma 3 Norte 0 -- -- 78
2020-06-20 02:00:00 17.9 2 Norte 5 Nordeste 0 -- -- 75
2020-06-20 01:00:00 19 2 Norte 4 Norte 0 -- -- 72
2020-06-20 00:00:00 20.1 0 Calma 12 Noroeste 0 -- -- 67
2020-06-19 23:00:00 21 3 Noroeste 13 Noroeste 0 -- -- 64
2020-06-19 22:00:00 22.6 3 Norte 13 Norte 0 -- -- 59
2020-06-19 21:00:00 23.8 5 Norte 15 Norte 0 -- -- 57
2020-06-19 20:00:00 25.3 3 Norte 11 Norte 0 -- -- 55
2020-06-19 19:00:00 26.2 4 Norte 15 Noroeste 0 -- -- 54
2020-06-19 18:00:00 27.2 3 Nordeste 17 Noroeste 0 -- -- 51
2020-06-19 17:00:00 29 6 Norte 19 Noroeste 0 -- -- 47
2020-06-19 16:00:00 29.1 5 Norte 22 Norte 0 -- -- 47
2020-06-19 15:00:00 28.8 5 Norte 21 Nordeste 0 -- -- 47
2020-06-19 14:00:00 27.9 5 Norte 17 Nordeste 0 -- -- 48
2020-06-19 13:00:00 27.2 5 Norte 15 Norte 0 -- -- 48
2020-06-19 12:00:00 25.9 3 Sur 9 Este 0 -- -- 52
2020-06-19 11:00:00 23.5 2 Sudoeste 8 Sur 0 -- -- 55
2020-06-19 10:00:00 19.1 0 Calma 5 Sudoeste 0 -- -- 63
2020-06-19 09:00:00 14 0 Calma 3 Sur 0 -- -- 77
2020-06-19 08:00:00 12.3 0 Calma 2 Norte 0 -- -- 83
2020-06-19 07:00:00 12.6 0 Calma 3 Norte 0 -- -- 80
2020-06-19 06:00:00 13.2 0 Calma 4 Noroeste 0 -- -- 74
2020-06-19 05:00:00 14.5 0 Calma 4 Norte 0 -- -- 68
2020-06-19 04:00:00 15 3 Norte 5 Norte 0 -- -- 65
2020-06-19 03:00:00 14.9 3 Noroeste 5 Norte 0 -- -- 61
2020-06-19 02:00:00 15.9 0 Calma 5 Sudoeste 0 -- -- 60
2020-06-19 01:00:00 16.3 2 Noroeste 5 Norte 0 -- -- 60
2020-06-19 00:00:00 17.5 2 Norte 9 Noroeste 0 -- -- 58
2020-06-18 23:00:00 18.2 3 Noroeste 8 Sudeste 0 -- -- 56
2020-06-18 22:00:00 19.9 2 Nordeste 8 Sudeste 0 -- -- 51
2020-06-18 21:00:00 22.2 2 Sudoeste 16 Norte 0 -- -- 39
2020-06-18 20:00:00 23.9 3 Este 13 Nordeste 0 -- -- 40
2020-06-18 19:00:00 25.2 4 Sudeste 17 Oeste 0 -- -- 37
2020-06-18 18:00:00 27 5 Sudeste 18 Sudoeste 0 -- -- 38
2020-06-18 17:00:00 29.2 5 Sur 14 Sudoeste 0 -- -- 38
2020-06-18 16:00:00 28.7 4 Este 20 Sudoeste 0 -- -- 38
2020-06-18 15:00:00 29.3 4 Sudeste 17 Sur 0 -- -- 37
2020-06-18 14:00:00 28.9 6 Sur 21 Sur 0 -- -- 37
2020-06-18 13:00:00 28.4 4 Sudeste 16 Sudoeste 0 -- -- 42
2020-06-18 12:00:00 27.7 6 Sur 17 Oeste 0 -- -- 44
2020-06-18 11:00:00 26.8 4 Sur 13 Sudeste 0 -- -- 41
2020-06-18 10:00:00 22.8 5 Sur 17 Sudeste 0 -- -- 52
2020-06-18 09:00:00 16.8 0 Calma 5 Sur 0 -- -- 77
2020-06-18 08:00:00 15.1 0 Calma 4 Noroeste 0 -- -- 77
2020-06-18 07:00:00 15 0 Calma 4 Norte 0 -- -- 75
2020-06-18 06:00:00 15.4 0 Calma 6 Sur 0 -- -- 71
2020-06-18 05:00:00 15.8 2 Noroeste 5 Norte 0 -- -- 70
2020-06-18 04:00:00 17.2 2 Noroeste 7 Sudeste 0 -- -- 68
2020-06-18 03:00:00 18.6 4 Este 14 Norte 0 -- -- 62
2020-06-18 02:00:00 19.3 5 Norte 18 Norte 0 -- -- 62
2020-06-18 01:00:00 19.8 6 Norte 15 Norte 0 -- -- 61
2020-06-18 00:00:00 20 3 Noroeste 13 Noroeste 0 -- -- 62
2020-06-17 23:00:00 20.8 4 Noroeste 14 Norte 0 -- -- 61
2020-06-17 22:00:00 21.7 5 Norte 17 Noroeste 0 -- -- 58
2020-06-17 21:00:00 23.1 4 Norte 17 Norte 0 -- -- 50
2020-06-17 20:00:00 24.7 4 Norte 17 Noroeste 0 -- -- 46
2020-06-17 19:00:00 26 4 Norte 26 Oeste 0 -- -- 44
2020-06-17 18:00:00 27 3 Noroeste 19 Norte 0 -- -- 42
2020-06-17 17:00:00 28.3 6 Norte 26 Nordeste 0 -- -- 40
2020-06-17 16:00:00 28.6 5 Norte 18 Nordeste 0 -- -- 43
2020-06-17 15:00:00 28.1 5 Norte 21 Nordeste 0 -- -- 43
2020-06-17 14:00:00 27.5 7 Norte 20 Nordeste 0 -- -- 45
2020-06-17 13:00:00 26.9 5 Norte 24 Nordeste 0 -- -- 50
2020-06-17 12:00:00 25.9 5 Norte 23 Norte 0 -- -- 50
2020-06-17 11:00:00 25 5 Norte 18 Nordeste 0 -- -- 55
2020-06-17 10:00:00 21.6 3 Sur 7 Sur 0 -- -- 68
2020-06-17 09:00:00 17.3 0 Calma 4 Sur 0 -- -- 84
2020-06-17 08:00:00 15.9 0 Calma 4 Sudoeste 0 -- -- 87
2020-06-17 07:00:00 16.4 2 Norte 9 Oeste 0 -- -- 84
2020-06-17 06:00:00 17.5 3 Noroeste 10 Norte 0 -- -- 80
2020-06-17 05:00:00 17.9 0 Calma 10 Noroeste 0 -- -- 78
2020-06-17 04:00:00 18.6 5 Norte 19 Noroeste 0 -- -- 76
2020-06-17 03:00:00 19 5 Norte 23 Norte 0 -- -- 74
2020-06-17 02:00:00 18.4 6 Norte 18 Nordeste 0 -- -- 78
2020-06-17 01:00:00 18 5 Norte 8 Norte 0 -- -- 80
2020-06-17 00:00:00 18.6 3 Noroeste 8 Nordeste 0 -- -- 79
2020-06-16 23:00:00 19.6 2 Noroeste 9 Norte 0 -- -- 75
2020-06-16 22:00:00 20.4 3 Este 10 Sudoeste 0 -- -- 72
2020-06-16 21:00:00 21.8 3 Este 12 Sudeste 0 -- -- 67
2020-06-16 20:00:00 23 4 Nordeste 13 Nordeste 0 -- -- 61
2020-06-16 19:00:00 23.7 5 Sudeste 18 Nordeste 0 -- -- 54
2020-06-16 18:00:00 24.4 5 Este 25 Noroeste 0 -- -- 52
2020-06-16 17:00:00 25.8 5 Este 23 Sudoeste 0 -- -- 45
2020-06-16 16:00:00 26.4 7 Sudoeste 28 Sudoeste 0 -- -- 42
2020-06-16 15:00:00 26.9 4 Norte 31 Sur 0 -- -- 38
2020-06-16 14:00:00 25.8 4 Este 26 Norte 0 -- -- 43
2020-06-16 13:00:00 25 4 Sudeste 19 Norte 0 -- -- 48
2020-06-16 12:00:00 24.7 6 Norte 22 Nordeste 0 -- -- 48
2020-06-16 11:00:00 23.7 4 Nordeste 21 Noroeste 0 -- -- 50
2020-06-16 10:00:00 22.1 4 Nordeste 13 Norte 0 -- -- 52
2020-06-16 09:00:00 18.6 3 Norte 11 Noroeste 0 -- -- 64
2020-06-16 08:00:00 16.8 5 Norte 13 Norte 0 -- -- 69
2020-06-16 07:00:00 17.3 4 Norte 30 Nordeste 0 -- -- 66
2020-06-16 06:00:00 17.8 3 Noroeste 21 Noroeste 0 -- -- 61
2020-06-16 05:00:00 18.7 3 Norte 15 Norte 0 -- -- 58
2020-06-16 04:00:00 17.4 3 Noroeste 12 Norte 0 -- -- 61
2020-06-16 03:00:00 17 3 Noroeste 10 Noroeste 0 -- -- 60
2020-06-16 02:00:00 17 0 Calma 15 Sudoeste 0 -- -- 64
2020-06-16 01:00:00 16.5 3 Sudoeste 9 Sur 0 -- -- 69
2020-06-16 00:00:00 17.7 3 Sudoeste 21 Nordeste 0 -- -- 64
2020-06-15 23:00:00 18.4 8 Norte 27 Noroeste 0 -- -- 61
2020-06-15 22:00:00 20.1 9 Norte 36 Noroeste 0 -- -- 51
2020-06-15 21:00:00 22.3 7 Norte 18 Norte 0 -- -- 49
2020-06-15 20:00:00 24.2 5 Norte 16 Nordeste 0 -- -- 49
2020-06-15 19:00:00 25.4 5 Norte 16 Noroeste 0 -- -- 47
2020-06-15 18:00:00 26.3 6 Norte 19 Norte 0 -- -- 42
2020-06-15 17:00:00 27.6 5 Norte 19 Nordeste 0 -- -- 41
2020-06-15 16:00:00 28.1 3 Norte 18 Norte 0 -- -- 36
2020-06-15 15:00:00 27 5 Norte 19 Nordeste 0 -- -- 39
2020-06-15 14:00:00 26.4 5 Este 21 Nordeste 0 -- -- 43
2020-06-15 13:00:00 26.2 5 Norte 18 Oeste 0 -- -- 47
2020-06-15 12:00:00 25.9 4 Norte 16 Nordeste 0 -- -- 45
2020-06-15 11:00:00 24.2 4 Norte 13 Norte 0 -- -- 46
2020-06-15 10:00:00 19.8 3 Sur 6 Sur 0 -- -- 62
2020-06-15 09:00:00 14.5 0 Calma 3 Sur 0 -- -- 81
2020-06-15 08:00:00 12.6 2 Norte 3 Sudoeste 0 -- -- 86
2020-06-15 07:00:00 12.8 2 Norte 4 Noroeste 0 -- -- 83
2020-06-15 06:00:00 13.5 0 Calma 3 Norte 0 -- -- 80
2020-06-15 05:00:00 14.4 0 Calma 10 Nordeste 0 -- -- 76
2020-06-15 04:00:00 14.4 0 Calma 5 Sudoeste 0 -- -- 76
2020-06-15 03:00:00 14.7 0 Calma 7 Sudeste 0 -- -- 75
2020-06-15 02:00:00 15.4 0 Calma 16 Oeste 0 -- -- 71
2020-06-15 01:00:00 15.9 4 Norte 15 Norte 0 -- -- 74
2020-06-15 00:00:00 16.4 2 Nordeste 23 Nordeste 0 -- -- 70
2020-06-14 23:00:00 16.8 4 Norte 15 Norte 0 -- -- 66
2020-06-14 22:00:00 18 3 Noroeste 10 Norte 0 -- -- 62
2020-06-14 21:00:00 19.4 2 Sur 9 Norte 0 -- -- 60
2020-06-14 20:00:00 21 4 Norte 16 Nordeste 0 -- -- 56
2020-06-14 19:00:00 22.3 3 Oeste 14 Norte 0 -- -- 52
2020-06-14 18:00:00 23.3 4 Nordeste 18 Sudeste 0 -- -- 49
2020-06-14 17:00:00 25.1 4 Sudoeste 22 Sudoeste 0 -- -- 45
2020-06-14 16:00:00 25.6 6 Sur 20 Sur 0 -- -- 48
2020-06-14 15:00:00 25.8 5 Sudeste 18 Sudoeste 0 -- -- 39
2020-06-14 14:00:00 24.8 4 Este 15 Sudoeste 0 -- -- 44
2020-06-14 13:00:00 24.7 5 Norte 16 Norte 0 -- -- 46
2020-06-14 12:00:00 23.8 5 Norte 17 Norte 0 -- -- 51
2020-06-14 11:00:00 23.1 3 Sudeste 13 Nordeste 0 -- -- 52
2020-06-14 10:00:00 19.7 2 Sudeste 10 Sudeste 0 -- -- 58
2020-06-14 09:00:00 14.9 0 Calma 5 Oeste 0 -- -- 79
2020-06-14 08:00:00 13.2 0 Calma 4 Norte 0 -- -- 78
2020-06-14 07:00:00 13.8 2 Noroeste 10 Sudeste 0 -- -- 75
2020-06-14 06:00:00 13.9 3 Norte 6 Nordeste 0 -- -- 74
2020-06-14 05:00:00 14.4 2 Noroeste 6 Norte 0 -- -- 73
2020-06-14 04:00:00 15.5 2 Este 10 Sur 0 -- -- 72
2020-06-14 03:00:00 15.8 5 Este 14 Sudeste 0 -- -- 71
2020-06-14 02:00:00 16.2 3 Sudoeste 12 Nordeste 0 -- -- 67
2020-06-14 01:00:00 16.6 3 Sudeste 11 Norte 0 -- -- 66
2020-06-14 00:00:00 17 3 Noroeste 17 Nordeste 0 -- -- 64
2020-06-13 23:00:00 17.4 3 Norte 19 Nordeste 0 -- -- 62
2020-06-13 22:00:00 18.2 5 Norte 18 Noroeste 0 -- -- 58
2020-06-13 21:00:00 19.6 4 Norte 19 Norte 0 -- -- 57
2020-06-13 20:00:00 21.4 4 Norte 13 Sudoeste 0 -- -- 53
2020-06-13 19:00:00 22.6 3 Este 16 Sudoeste 0 -- -- 47
2020-06-13 18:00:00 23.3 3 Este 13 Sudoeste 0 -- -- 40
2020-06-13 17:00:00 24.6 4 Sudeste 14 Sudoeste 0 -- -- 40
2020-06-13 16:00:00 24.9 4 Nordeste 14 Sudoeste 0 -- -- 38
2020-06-13 15:00:00 24.4 3 Nordeste 18 Norte 0 -- -- 43
2020-06-13 14:00:00 23.5 5 Noroeste 14 Sur 0 -- -- 45
2020-06-13 13:00:00 22.5 4 Este 14 Noroeste 0 -- -- 46
2020-06-13 12:00:00 21 4 Sur 13 Sur 0 -- -- 52
2020-06-13 11:00:00 20.4 2 Sudeste 12 Oeste 0 -- -- 53
2020-06-13 10:00:00 17.6 3 Este 15 Este 0 -- -- 65
2020-06-13 09:00:00 13.5 3 Sur 5 Sur 0 -- -- 87
2020-06-13 08:00:00 11.9 0 Calma 3 Norte 0 -- -- 91
2020-06-13 07:00:00 12.5 0 Calma 8 Norte 0 -- -- 89
2020-06-13 06:00:00 12.8 4 Norte 5 Norte 0 -- -- 89
2020-06-13 05:00:00 13.2 0 Calma 9 Noroeste 0 -- -- 88
2020-06-13 04:00:00 14.1 0 Calma 4 Norte 0 -- -- 85
2020-06-13 03:00:00 14.3 0 Calma 8 Norte 0 -- -- 84
2020-06-13 02:00:00 15.1 3 Norte 8 Sudoeste 0 -- -- 78
2020-06-13 01:00:00 15.7 0 Calma 4 Este 0 -- -- 77
2020-06-13 00:00:00 16 0 Calma 9 Nordeste 0 -- -- 76
2020-06-12 23:00:00 16 2 Sudeste 12 Sudeste 0 -- -- 74
2020-06-12 22:00:00 16.5 0 Calma 8 Norte 0 -- -- 71
2020-06-12 21:00:00 17.6 3 Este 10 Sur 0 -- -- 63
2020-06-12 20:00:00 18.4 3 Sur 12 Sur 0 -- -- 57
2020-06-12 19:00:00 19.7 4 Sudoeste 20 Norte 0 -- -- 55
2020-06-12 18:00:00 21 4 Sur 15 Sudoeste 0 -- -- 52
2020-06-12 17:00:00 21 4 Sur 23 Sudoeste 0 -- -- 54
2020-06-12 16:00:00 20.2 4 Sudeste 19 Sur 0 -- -- 61
2020-06-12 15:00:00 21.1 4 Sur 16 Sudoeste 0 -- -- 56
2020-06-12 14:00:00 20.2 4 Sudoeste 25 Sudoeste 0 -- -- 60
2020-06-12 13:00:00 20.6 6 Norte 19 Sudoeste 0 -- -- 63
2020-06-12 12:00:00 19.4 5 Noroeste 19 Noroeste 0 -- -- 66
2020-06-12 11:00:00 18.1 5 Norte 18 Norte 0 -- -- 76
2020-06-12 10:00:00 15.6 4 Norte 19 Norte 0 -- -- 84
2020-06-12 09:00:00 14.6 2 Este 8 Norte 0.2 -- -- 93
2020-06-12 08:00:00 13.8 0 Calma 6 Sudeste 0 -- -- 95
2020-06-12 07:00:00 14.5 0 Calma 10 Oeste 1 -- -- 93
2020-06-12 06:00:00 15.3 0 Calma 4 Norte 0.6 -- -- 95
2020-06-12 05:00:00 15.4 0 Calma 3 Norte 0.2 -- -- 95
2020-06-12 04:00:00 15.4 0 Calma 6 Sudeste 1 -- -- 95
2020-06-12 03:00:00 15.6 0 Calma 5 Norte 0.8 -- -- 94
2020-06-12 02:00:00 15.9 0 Calma 4 Norte 0.8 -- -- 93
2020-06-12 01:00:00 16 0 Calma 3 Noroeste 0 -- -- 92
2020-06-12 00:00:00 16.2 0 Calma 5 Sudeste 0.6 -- -- 90
2020-06-11 23:00:00 17.2 0 Calma 7 Sudoeste 0 -- -- 78
2020-06-11 22:00:00 17.5 0 Calma 10 Sudoeste 0 -- -- 74
2020-06-11 21:00:00 17.8 3 Este 25 Sudoeste 0 -- -- 71
2020-06-11 20:00:00 18.9 3 Norte 15 Sudoeste 0 -- -- 61
2020-06-11 19:00:00 19.5 4 Sur 23 Sudoeste 0 -- -- 56
2020-06-11 18:00:00 20.1 7 Sur 24 Sur 0 -- -- 58
2020-06-11 17:00:00 22.1 5 Sur 18 Sur 0 -- -- 54
2020-06-11 16:00:00 23.3 7 Sur 20 Sur 0 -- -- 51
2020-06-11 15:00:00 22 7 Sudeste 23 Sur 0 -- -- 57
2020-06-11 14:00:00 21.7 7 Sur 20 Sur 0 -- -- 55
2020-06-11 13:00:00 20.6 6 Sudeste 19 Sudoeste 0 -- -- 60
2020-06-11 12:00:00 20.1 8 Sur 22 Sudeste 0 -- -- 58
2020-06-11 11:00:00 19.8 7 Sur 20 Sur 0 -- -- 61
2020-06-11 10:00:00 17.6 5 Sur 15 Sur 0 -- -- 69
2020-06-11 09:00:00 14.4 0 Calma 4 Norte 0 -- -- 87
2020-06-11 08:00:00 12.7 0 Calma 3 Norte 0 -- -- 90
2020-06-11 07:00:00 12.3 2 Norte 4 Norte 0 -- -- 87
2020-06-11 06:00:00 12.7 0 Calma 3 Norte 0 -- -- 81
2020-06-11 05:00:00 13.7 2 Noroeste 4 Norte 0 -- -- 74
2020-06-11 04:00:00 14.6 3 Norte 7 Norte 0 -- -- 68
2020-06-11 03:00:00 14.1 2 Norte 9 Nordeste 0 -- -- 67
2020-06-11 02:00:00 15.1 2 Norte 7 Norte 0 -- -- 66
2020-06-11 01:00:00 15.7 2 Norte 10 Noroeste 0 -- -- 65
2020-06-11 00:00:00 16.8 3 Sudoeste 11 Sudoeste 0 -- -- 66
2020-06-10 23:00:00 17.7 0 Calma 6 Norte 0 -- -- 67
2020-06-10 22:00:00 18.7 0 Calma 6 Norte 0 -- -- 65
2020-06-10 21:00:00 20.6 3 Norte 16 Noroeste 0 -- -- 57
2020-06-10 20:00:00 22.7 0 Calma 12 Sur 0 -- -- 55
2020-06-10 19:00:00 24 4 Sur 16 Sur 0 -- -- 48
2020-06-10 18:00:00 25 6 Sur 16 Sur 0 -- -- 50
2020-06-10 17:00:00 24.9 4 Sur 11 Sur 0 -- -- 58
2020-06-10 16:00:00 25.7 4 Sur 15 Sur 0 -- -- 52
2020-06-10 15:00:00 27 5 Sur 15 Sur 0 -- -- 48
2020-06-10 14:00:00 26.4 5 Sur 16 Sudoeste 0 -- -- 44
2020-06-10 13:00:00 26.5 5 Sudeste 15 Sur 0 -- -- 45
2020-06-10 12:00:00 25.5 5 Sur 13 Sudoeste 0 -- -- 44
2020-06-10 11:00:00 23.1 2 Sudoeste 5 Sur 0 -- -- 54
2020-06-10 10:00:00 18.3 0 Calma 4 Sudoeste 0 -- -- 66
2020-06-10 09:00:00 14.6 0 Calma 3 Sur 0 -- -- 80
2020-06-10 08:00:00 12.5 0 Calma 4 Norte 0 -- -- 80
2020-06-10 07:00:00 12.7 0 Calma 4 Noroeste 0 -- -- 77
2020-06-10 06:00:00 13.5 0 Calma 4 Noroeste 0 -- -- 75
2020-06-10 05:00:00 13.3 2 Noroeste 5 Norte 0 -- -- 75
2020-06-10 04:00:00 13.7 0 Calma 5 Noroeste 0 -- -- 73
2020-06-10 03:00:00 14.2 0 Calma 5 Sudoeste 0 -- -- 80
2020-06-10 02:00:00 14.8 2 Norte 4 Norte 0 -- -- 83
2020-06-10 01:00:00 15.4 2 Norte 4 Norte 0 -- -- 81
2020-06-10 00:00:00 16.3 2 Noroeste 4 Este 0 -- -- 78
2020-06-09 23:00:00 17.4 0 Calma 10 Norte 0 -- -- 74
2020-06-09 22:00:00 18.8 3 Noroeste 7 Noroeste 0 -- -- 69
2020-06-09 21:00:00 20.5 2 Norte 6 Norte 0 -- -- 65
2020-06-09 20:00:00 22.2 2 Sudeste 12 Sudoeste 0 -- -- 57
2020-06-09 19:00:00 23.2 3 Sudoeste 19 Sur 0 -- -- 54
2020-06-09 18:00:00 24.2 4 Sudeste 17 Norte 0 -- -- 52
2020-06-09 17:00:00 25.5 5 Sur 17 Sudoeste 0 -- -- 48
2020-06-09 16:00:00 25.8 5 Sudoeste 21 Nordeste 0 -- -- 48
2020-06-09 15:00:00 25.7 6 Norte 19 Norte 0 -- -- 51
2020-06-09 14:00:00 25.5 5 Norte 22 Nordeste 0 -- -- 53
2020-06-09 13:00:00 24.7 5 Norte 22 Nordeste 0 -- -- 52
2020-06-09 12:00:00 23.4 6 Norte 20 Nordeste 0 -- -- 57
2020-06-09 11:00:00 22.2 4 Sudeste 11 Este 0 -- -- 64
2020-06-09 10:00:00 18.8 3 Sudeste 8 Sudeste 0 -- -- 72
2020-06-09 09:00:00 15.2 0 Calma 5 Sudoeste 0 -- -- 86
2020-06-09 08:00:00 13 0 Calma 4 Noroeste 0 -- -- 93
2020-06-09 07:00:00 12.9 0 Calma 3 Norte 0 -- -- 91
2020-06-09 06:00:00 13 0 Calma 4 Noroeste 0 -- -- 89
2020-06-09 05:00:00 13.1 2 Norte 4 Norte 0 -- -- 85
2020-06-09 04:00:00 13.4 2 Noroeste 5 Norte 0 -- -- 80
2020-06-09 03:00:00 13.6 0 Calma 4 Noroeste 0 -- -- 79
2020-06-09 02:00:00 13.8 2 Noroeste 4 Norte 0 -- -- 81
2020-06-09 01:00:00 14.2 0 Calma 5 Sudoeste 0 -- -- 81
2020-06-09 00:00:00 14.5 0 Calma 4 Nordeste 0 -- -- 80
2020-06-08 23:00:00 15.7 0 Calma 8 Norte 0 -- -- 73
2020-06-08 22:00:00 16.7 0 Calma 8 Nordeste 0 -- -- 69
2020-06-08 21:00:00 18.2 0 Calma 6 Norte 0 -- -- 65
2020-06-08 20:00:00 19.5 2 Este 10 Norte 0 -- -- 57
2020-06-08 19:00:00 20.4 0 Calma 13 Sudoeste 0 -- -- 53
2020-06-08 18:00:00 21.2 5 Norte 20 Nordeste 0 -- -- 49
2020-06-08 17:00:00 22.7 5 Norte 19 Norte 0 -- -- 44
2020-06-08 16:00:00 22.3 4 Sur 22 Nordeste 0 -- -- 43
2020-06-08 15:00:00 21.9 6 Sudeste 21 Norte 0 -- -- 50
2020-06-08 14:00:00 21 5 Norte 27 Sur 0 -- -- 48
2020-06-08 13:00:00 20.7 4 Sudeste 25 Oeste 0 -- -- 55
2020-06-08 12:00:00 19.3 5 Sudeste 19 Nordeste 0 -- -- 54
2020-06-08 11:00:00 18.2 5 Norte 19 Noroeste 0 -- -- 56
2020-06-08 10:00:00 17.7 3 Norte 17 Nordeste 0 -- -- 51
2020-06-08 09:00:00 15.4 4 Norte 15 Norte 0 -- -- 67
2020-06-08 08:00:00 14.2 2 Noroeste 12 Norte 0 -- -- 80
2020-06-08 07:00:00 14.2 2 Noroeste 10 Sur 0 -- -- 87
2020-06-08 06:00:00 14.5 3 Norte 5 Oeste 0 -- -- 88
2020-06-08 05:00:00 15.6 0 Calma 7 Norte 0 -- -- 88
2020-06-08 04:00:00 15.8 2 Norte 3 Norte 0 -- -- 88
2020-06-08 03:00:00 15.5 2 Norte 3 Norte 0 -- -- 87
2020-06-08 02:00:00 16.7 0 Calma 4 Este 0 -- -- 83
2020-06-08 01:00:00 17.1 0 Calma 7 Sudeste 0 -- -- 81
2020-06-08 00:00:00 16.7 0 Calma 6 Nordeste 0 -- -- 82
2020-06-07 23:00:00 16.6 0 Calma 4 Norte 0 -- -- 81
2020-06-07 22:00:00 17.9 0 Calma 6 Sudoeste 0 -- -- 75
2020-06-07 21:00:00 19.2 2 Noroeste 15 Sur 0 -- -- 70
2020-06-07 20:00:00 20.5 3 Sur 16 Norte 0 -- -- 60
2020-06-07 19:00:00 21.6 4 Sur 14 Sur 0 -- -- 61
2020-06-07 18:00:00 22.3 5 Sur 14 Sudeste 0 -- -- 59
2020-06-07 17:00:00 23.4 5 Sur 24 Sudoeste 0 -- -- 56
2020-06-07 16:00:00 23.5 4 Este 19 Sur 0 -- -- 58
2020-06-07 15:00:00 23.3 5 Sur 21 Oeste 0 -- -- 58
2020-06-07 14:00:00 23.3 5 Este 22 Sudeste 0 -- -- 60
2020-06-07 13:00:00 23.2 6 Sudeste 19 Sur 0 -- -- 60
2020-06-07 12:00:00 23.5 4 Este 20 Sur 0 -- -- 59
2020-06-07 11:00:00 22.3 4 Sudeste 12 Sudeste 0 -- -- 63
2020-06-07 10:00:00 19.1 0 Calma 5 Sudeste 0 -- -- 77
2020-06-07 09:00:00 17.7 0 Calma 4 Sudoeste 0 -- -- 84
2020-06-07 08:00:00 16.2 0 Calma 3 Norte 0 -- -- 89
2020-06-07 07:00:00 16.2 0 Calma 5 Nordeste 0 -- -- 87
2020-06-07 06:00:00 15.8 2 Norte 4 Norte 0 -- -- 87
2020-06-07 05:00:00 15.3 2 Norte 4 Norte 0 -- -- 89
2020-06-07 04:00:00 15.1 2 Norte 3 Norte 0 -- -- 88
2020-06-07 03:00:00 15.6 0 Calma -- -- 0 -- -- 86
2020-06-07 02:00:00 16 2 Norte 5 Norte 0 -- -- 85
2020-06-07 01:00:00 16.4 2 Norte 6 Norte 0 -- -- 81
2020-06-07 00:00:00 17 2 Norte 4 Norte 0 -- -- 77